Time;durP1;ratioP1;P1;durP2;ratioP2;P2;SDS_P1;SDS_P2;PMS_P1;PMS_P2;Temp;Humidity;BMP_temperature;BMP_pressure;BME280_temperature;BME280_humidity;BME280_pressure;Samples;Min_cycle;Max_cycle;Signal;HPM_P1;HPM_P2
2024/02/07 00:02:17;;;;;;;1999.90;999.90;;;;;;;;;;5119393;27;20438;-85
2024/02/07 00:04:43;;;;;;;1999.90;999.90;;;;;;;;;;5114177;27;20047;-84
2024/02/07 00:07:11;;;;;;;1999.90;999.90;;;;;;;;;;5128190;27;20050;-86
2024/02/07 00:09:40;;;;;;;1999.90;999.90;;;;;;;;;;5127261;27;20042;-85
2024/02/07 00:12:07;;;;;;;1999.90;999.90;;;;;;;;;;5127939;27;20058;-87
2024/02/07 00:14:34;;;;;;;1999.90;999.90;;;;;;;;;;5106684;27;20514;-86
2024/02/07 00:17:01;;;;;;;1999.90;999.90;;;;;;;;;;5126349;27;20057;-85
2024/02/07 00:19:30;;;;;;;1999.90;999.90;;;;;;;;;;5117636;27;20057;-85
2024/02/07 00:21:57;;;;;;;1999.90;999.90;;;;;;;;;;5141217;27;20472;-86
2024/02/07 00:24:35;;;;;;;1999.90;999.90;;;;;;;;;;5143460;27;20054;-86
2024/02/07 00:27:01;;;;;;;1999.90;999.90;;;;;;;;;;5126998;27;20047;-88
2024/02/07 00:29:28;;;;;;;1999.90;999.90;;;;;;;;;;5121677;27;20058;-86
2024/02/07 00:31:55;;;;;;;1999.90;999.90;;;;;;;;;;5124623;27;20100;-85
2024/02/07 00:34:22;;;;;;;1999.90;999.90;;;;;;;;;;5122196;27;20066;-86
2024/02/07 00:36:49;;;;;;;1999.90;999.90;;;;;;;;;;5141066;27;20054;-86
2024/02/07 00:39:18;;;;;;;1999.90;999.90;;;;;;;;;;5133934;27;20051;-86
2024/02/07 00:41:46;;;;;;;1999.90;999.90;;;;;;;;;;5131002;27;20055;-86
2024/02/07 00:44:12;;;;;;;1999.90;999.90;;;;;;;;;;5139829;27;20055;-85
2024/02/07 00:46:40;;;;;;;1999.90;999.90;;;;;;;;;;5143123;27;20046;-86
2024/02/07 00:49:12;;;;;;;1999.90;999.90;;;;;;;;;;5111782;27;20042;-85
2024/02/07 00:51:40;;;;;;;1999.90;999.90;;;;;;;;;;5145116;27;20111;-86
2024/02/07 00:54:08;;;;;;;1999.90;999.90;;;;;;;;;;5134312;27;20057;-86
2024/02/07 00:56:36;;;;;;;1999.90;999.90;;;;;;;;;;5141554;27;20050;-83
2024/02/07 00:59:04;;;;;;;1999.90;999.90;;;;;;;;;;5136256;27;20051;-86
2024/02/07 01:01:31;;;;;;;1999.90;999.90;;;;;;;;;;5140282;27;20050;-87
2024/02/07 01:03:58;;;;;;;1999.90;999.90;;;;;;;;;;5137878;27;20104;-86
2024/02/07 01:06:26;;;;;;;1999.90;999.90;;;;;;;;;;5131714;27;20051;-85
2024/02/07 01:08:53;;;;;;;1999.90;999.90;;;;;;;;;;5119632;27;20528;-85
2024/02/07 01:11:20;;;;;;;1999.90;999.90;;;;;;;;;;5137909;27;20566;-85
2024/02/07 01:13:47;;;;;;;1999.90;999.90;;;;;;;;;;5139687;27;20416;-86
2024/02/07 01:16:16;;;;;;;1999.90;999.90;;;;;;;;;;5141012;27;20047;-87
2024/02/07 01:18:43;;;;;;;1999.90;999.90;;;;;;;;;;5127112;27;20514;-86
2024/02/07 01:21:09;;;;;;;1999.90;999.90;;;;;;;;;;5132923;27;20050;-86
2024/02/07 01:23:38;;;;;;;1999.90;999.90;;;;;;;;;;5116098;27;20051;-86
2024/02/07 01:26:06;;;;;;;1999.90;999.90;;;;;;;;;;5134107;27;20061;-86
2024/02/07 01:28:33;;;;;;;1999.90;999.90;;;;;;;;;;5116904;27;20062;-84
2024/02/07 01:31:00;;;;;;;1999.90;999.90;;;;;;;;;;5116492;27;20074;-85
2024/02/07 01:33:28;;;;;;;1999.90;999.90;;;;;;;;;;5136846;27;20054;-85
2024/02/07 01:35:55;;;;;;;1999.90;999.90;;;;;;;;;;5133014;27;20061;-86
2024/02/07 01:38:22;;;;;;;1999.90;999.90;;;;;;;;;;5131173;27;20059;-85
2024/02/07 01:40:49;;;;;;;1999.90;999.90;;;;;;;;;;5100449;27;20047;-85
2024/02/07 01:43:16;;;;;;;1999.90;999.90;;;;;;;;;;5112826;27;20059;-85
2024/02/07 01:45:43;;;;;;;1999.90;999.90;;;;;;;;;;5134681;27;20059;-85
2024/02/07 01:48:12;;;;;;;1999.90;999.90;;;;;;;;;;5125066;27;20051;-86
2024/02/07 01:50:41;;;;;;;1999.90;999.90;;;;;;;;;;5121674;27;20114;-85
2024/02/07 01:53:10;;;;;;;1999.90;999.90;;;;;;;;;;5120618;27;20043;-86
2024/02/07 01:55:38;;;;;;;1999.90;999.90;;;;;;;;;;5141329;27;20046;-84
2024/02/07 01:58:05;;;;;;;1999.90;999.90;;;;;;;;;;5134026;27;20051;-85
2024/02/07 02:00:32;;;;;;;1999.90;999.90;;;;;;;;;;5126793;27;20051;-84
2024/02/07 02:03:00;;;;;;;1999.90;999.90;;;;;;;;;;5136855;27;20092;-84
2024/02/07 02:05:27;;;;;;;1999.90;999.90;;;;;;;;;;5133547;27;20055;-85
2024/02/07 02:07:55;;;;;;;1999.90;999.90;;;;;;;;;;5142527;27;20050;-85
2024/02/07 02:10:22;;;;;;;1999.90;999.90;;;;;;;;;;5115478;27;20052;-85
2024/02/07 02:12:49;;;;;;;1999.90;999.90;;;;;;;;;;5136113;27;20069;-85
2024/02/07 02:15:16;;;;;;;1999.90;999.90;;;;;;;;;;5136602;27;20076;-85
2024/02/07 02:17:45;;;;;;;1999.90;999.90;;;;;;;;;;5133161;27;20065;-86
2024/02/07 02:20:13;;;;;;;1999.90;999.90;;;;;;;;;;5118865;27;20488;-85
2024/02/07 02:26:27;;;;;;;1999.90;999.90;;;;;;;;;;5063656;28;20386;-80
2024/02/07 02:29:04;;;;;;;1999.90;999.90;;;;;;;;;;5067967;28;20056;-82
2024/02/07 02:31:34;;;;;;;1999.90;999.90;;;;;;;;;;5067913;28;20051;-79
2024/02/07 02:34:02;;;;;;;1999.90;999.90;;;;;;;;;;5062568;28;20056;-80
2024/02/07 02:36:28;;;;;;;1999.90;999.90;;;;;;;;;;5063004;28;20051;-82
2024/02/07 02:38:55;;;;;;;1999.90;999.90;;;;;;;;;;5060370;28;20048;-81
2024/02/07 02:41:23;;;;;;;1999.90;999.90;;;;;;;;;;5069808;28;20040;-81
2024/02/07 02:43:49;;;;;;;1999.90;999.90;;;;;;;;;;5068580;28;20040;-80
2024/02/07 02:46:16;;;;;;;1999.90;999.90;;;;;;;;;;5071211;28;20048;-80
2024/02/07 02:48:44;;;;;;;1999.90;999.90;;;;;;;;;;5065953;28;20049;-80
2024/02/07 02:51:10;;;;;;;1999.90;999.90;;;;;;;;;;5057065;28;20409;-81
2024/02/07 02:53:37;;;;;;;1999.90;999.90;;;;;;;;;;5053348;28;20048;-80
2024/02/07 02:56:05;;;;;;;1999.90;999.90;;;;;;;;;;5050273;28;20136;-80
2024/02/07 02:58:32;;;;;;;1999.90;999.90;;;;;;;;;;5053787;28;20040;-81
2024/02/07 03:01:02;;;;;;;1999.90;999.90;;;;;;;;;;5060295;28;20098;-81
2024/02/07 03:03:30;;;;;;;1999.90;999.90;;;;;;;;;;5064259;28;20507;-80
2024/02/07 03:05:59;;;;;;;1999.90;999.90;;;;;;;;;;5060450;28;20273;-82
2024/02/07 03:08:42;;;;;;;1999.90;999.90;;;;;;;;;;5059560;28;20053;-81
2024/02/07 03:11:09;;;;;;;1999.90;999.90;;;;;;;;;;5060082;28;20078;-80
2024/02/07 03:13:37;;;;;;;1999.90;999.90;;;;;;;;;;5063929;28;20127;-80
2024/02/07 03:16:05;;;;;;;1999.90;999.90;;;;;;;;;;5064380;28;20466;-80
2024/02/07 03:18:33;;;;;;;1999.90;999.90;;;;;;;;;;5062251;28;20045;-82
2024/02/07 03:21:02;;;;;;;1999.90;999.90;;;;;;;;;;5058100;28;20050;-78
2024/02/07 03:23:29;;;;;;;1999.90;999.90;;;;;;;;;;5057314;28;20061;-80
2024/02/07 03:25:56;;;;;;;1999.90;999.90;;;;;;;;;;5055433;28;20387;-80
2024/02/07 03:28:22;;;;;;;1999.90;999.90;;;;;;;;;;5066491;28;20044;-81
2024/02/07 03:30:49;;;;;;;1999.90;999.90;;;;;;;;;;5068081;28;20037;-81
2024/02/07 03:33:17;;;;;;;1999.90;999.90;;;;;;;;;;5060747;28;20122;-80
2024/02/07 03:35:43;;;;;;;1999.90;999.90;;;;;;;;;;5056816;28;20501;-81
2024/02/07 03:38:11;;;;;;;1999.90;999.90;;;;;;;;;;5046063;28;20539;-81
2024/02/07 03:40:38;;;;;;;1999.90;999.90;;;;;;;;;;5046060;28;20061;-80
2024/02/07 03:43:06;;;;;;;1999.90;999.90;;;;;;;;;;5049247;28;20046;-80
2024/02/07 03:45:33;;;;;;;1999.90;999.90;;;;;;;;;;5042948;28;20098;-81
2024/02/07 03:48:00;;;;;;;1999.90;999.90;;;;;;;;;;5045758;28;20053;-79
2024/02/07 03:50:27;;;;;;;1999.90;999.90;;;;;;;;;;5049153;28;20049;-81
2024/02/07 03:52:55;;;;;;;1999.90;999.90;;;;;;;;;;5043164;28;20128;-81
2024/02/07 03:55:23;;;;;;;1999.90;999.90;;;;;;;;;;5042883;28;20071;-80
2024/02/07 03:57:50;;;;;;;1999.90;999.90;;;;;;;;;;5042774;28;20041;-80
2024/02/07 04:00:17;;;;;;;1999.90;999.90;;;;;;;;;;5046897;28;20051;-82
2024/02/07 04:02:45;;;;;;;1999.90;999.90;;;;;;;;;;5046021;28;20048;-80
2024/02/07 04:05:12;;;;;;;1999.90;999.90;;;;;;;;;;5047157;28;20153;-82
2024/02/07 04:07:39;;;;;;;1999.90;999.90;;;;;;;;;;5045516;28;20047;-80
2024/02/07 04:10:09;;;;;;;1999.90;999.90;;;;;;;;;;5039941;28;20053;-80
2024/02/07 05:17:46;;;;;;;1999.90;999.90;;;;;;;;;;5043590;28;20045;-80
2024/02/07 05:20:13;;;;;;;1999.90;999.90;;;;;;;;;;5043642;28;20045;-82
2024/02/07 05:22:40;;;;;;;1999.90;999.90;;;;;;;;;;5043939;28;20041;-81
2024/02/07 05:25:08;;;;;;;1999.90;999.90;;;;;;;;;;5041576;28;20375;-82
2024/02/07 05:27:34;;;;;;;1999.90;999.90;;;;;;;;;;5039764;28;20056;-79
2024/02/07 05:30:01;;;;;;;1999.90;999.90;;;;;;;;;;5046562;28;20052;-82
2024/02/07 05:32:28;;;;;;;1999.90;999.90;;;;;;;;;;5043604;28;20049;-80
2024/02/07 05:34:55;;;;;;;1999.90;999.90;;;;;;;;;;5052262;28;20506;-80
2024/02/07 05:37:23;;;;;;;1999.90;999.90;;;;;;;;;;5044394;28;20172;-80
2024/02/07 05:39:49;;;;;;;1999.90;999.90;;;;;;;;;;5047691;28;20102;-81
2024/02/07 05:42:16;;;;;;;1999.90;999.90;;;;;;;;;;5042396;28;20128;-81
2024/02/07 05:44:42;;;;;;;1999.90;999.90;;;;;;;;;;5040694;28;20049;-81
2024/02/07 05:47:09;;;;;;;1999.90;999.90;;;;;;;;;;5040996;28;20053;-81
2024/02/07 05:49:35;;;;;;;1999.90;999.90;;;;;;;;;;5042931;28;20049;-82
2024/02/07 05:52:03;;;;;;;1999.90;999.90;;;;;;;;;;5043395;28;20534;-81
2024/02/07 05:54:30;;;;;;;1999.90;999.90;;;;;;;;;;5045688;28;20041;-81
2024/02/07 05:56:57;;;;;;;1999.90;999.90;;;;;;;;;;5043093;28;20049;-81
2024/02/07 05:59:23;;;;;;;1999.90;999.90;;;;;;;;;;5045463;28;20509;-80
2024/02/07 06:01:50;;;;;;;1999.90;999.90;;;;;;;;;;5045346;28;20044;-82
2024/02/07 06:04:17;;;;;;;1999.90;999.90;;;;;;;;;;5044344;28;20053;-80
2024/02/07 06:06:45;;;;;;;1999.90;999.90;;;;;;;;;;5050783;28;20046;-81
2024/02/07 06:09:15;;;;;;;1999.90;999.90;;;;;;;;;;5037439;28;20081;-80
2024/02/07 06:11:42;;;;;;;1999.90;999.90;;;;;;;;;;5037734;28;20049;-82
2024/02/07 06:14:09;;;;;;;1999.90;999.90;;;;;;;;;;5041813;28;20619;-83
2024/02/07 06:16:35;;;;;;;1999.90;999.90;;;;;;;;;;5044875;28;20049;-79
2024/02/07 06:19:02;;;;;;;1999.90;999.90;;;;;;;;;;5039273;28;20081;-79
2024/02/07 06:21:29;;;;;;;1999.90;999.90;;;;;;;;;;5042772;28;20045;-80
2024/02/07 06:23:55;;;;;;;1999.90;999.90;;;;;;;;;;5044024;28;20080;-79
2024/02/07 06:26:23;;;;;;;1999.90;999.90;;;;;;;;;;5041356;28;20055;-80
2024/02/07 06:28:50;;;;;;;1999.90;999.90;;;;;;;;;;5040739;28;20402;-82
2024/02/07 06:31:16;;;;;;;1999.90;999.90;;;;;;;;;;5047822;28;20111;-79
2024/02/07 06:33:43;;;;;;;1999.90;999.90;;;;;;;;;;5038912;28;20053;-80
2024/02/07 06:36:11;;;;;;;1999.90;999.90;;;;;;;;;;5036652;28;20049;-81
2024/02/07 06:38:37;;;;;;;1999.90;999.90;;;;;;;;;;5044880;28;20621;-79
2024/02/07 06:41:04;;;;;;;1999.90;999.90;;;;;;;;;;5046252;28;20041;-79
2024/02/07 06:43:32;;;;;;;1999.90;999.90;;;;;;;;;;5041276;28;20037;-79
2024/02/07 06:45:59;;;;;;;1999.90;999.90;;;;;;;;;;5048436;28;20512;-79
2024/02/07 06:48:25;;;;;;;1999.90;999.90;;;;;;;;;;5047366;28;20045;-80
2024/02/07 06:50:52;;;;;;;1999.90;999.90;;;;;;;;;;5043733;28;20049;-78
2024/02/07 06:53:18;;;;;;;1999.90;999.90;;;;;;;;;;5046361;28;20560;-80
2024/02/07 06:55:45;;;;;;;1999.90;999.90;;;;;;;;;;5049808;28;20049;-78
2024/02/07 06:58:11;;;;;;;1999.90;999.90;;;;;;;;;;5034830;28;20049;-79
2024/02/07 07:00:39;;;;;;;1999.90;999.90;;;;;;;;;;5042140;28;20040;-79
2024/02/07 07:03:06;;;;;;;1999.90;999.90;;;;;;;;;;5044160;28;20565;-80
2024/02/07 07:05:32;;;;;;;1999.90;999.90;;;;;;;;;;5039968;28;20136;-80
2024/02/07 07:07:59;;;;;;;1999.90;999.90;;;;;;;;;;5037985;28;20049;-80
2024/02/07 07:10:26;;;;;;;1999.90;999.90;;;;;;;;;;5041637;28;20105;-80
2024/02/07 07:12:53;;;;;;;1999.90;999.90;;;;;;;;;;5039839;28;20049;-80
2024/02/07 07:15:20;;;;;;;1999.90;999.90;;;;;;;;;;5039835;28;20506;-80
2024/02/07 07:17:48;;;;;;;1999.90;999.90;;;;;;;;;;5044855;28;20120;-80
2024/02/07 07:20:14;;;;;;;1999.90;999.90;;;;;;;;;;5045729;28;20059;-80
2024/02/07 07:22:41;;;;;;;1999.90;999.90;;;;;;;;;;5040088;28;20391;-79
2024/02/07 07:25:08;;;;;;;1999.90;999.90;;;;;;;;;;5045596;28;20060;-79
2024/02/07 07:27:34;;;;;;;1999.90;999.90;;;;;;;;;;5046863;28;20045;-79
2024/02/07 07:30:01;;;;;;;1999.90;999.90;;;;;;;;;;5049960;28;20045;-80
2024/02/07 07:32:27;;;;;;;1999.90;999.90;;;;;;;;;;5046856;28;20060;-83
2024/02/07 07:34:55;;;;;;;1999.90;999.90;;;;;;;;;;5046707;28;20631;-81
2024/02/07 07:37:22;;;;;;;1999.90;999.90;;;;;;;;;;5040969;28;20054;-79
2024/02/07 07:39:49;;;;;;;1999.90;999.90;;;;;;;;;;5043916;28;20143;-79
2024/02/07 07:42:16;;;;;;;1999.90;999.90;;;;;;;;;;5046691;28;20048;-80
2024/02/07 07:44:42;;;;;;;1999.90;999.90;;;;;;;;;;5047426;28;20036;-79
2024/02/07 07:47:09;;;;;;;1999.90;999.90;;;;;;;;;;5048266;28;20045;-79
2024/02/07 07:49:35;;;;;;;1999.90;999.90;;;;;;;;;;5041787;28;20128;-80
2024/02/07 07:52:03;;;;;;;1999.90;999.90;;;;;;;;;;5043170;28;20050;-79
2024/02/07 07:54:30;;;;;;;1999.90;999.90;;;;;;;;;;5043024;28;20485;-80
2024/02/07 07:56:57;;;;;;;1999.90;999.90;;;;;;;;;;5046423;28;20075;-80
2024/02/07 07:59:24;;;;;;;1999.90;999.90;;;;;;;;;;5046135;28;20041;-79
2024/02/07 08:01:57;;;;;;;1999.90;999.90;;;;;;;;;;5051708;28;20050;-79
2024/02/07 08:04:23;;;;;;;1999.90;999.90;;;;;;;;;;5049392;28;20045;-80
2024/02/07 08:06:50;;;;;;;1999.90;999.90;;;;;;;;;;5045246;28;20041;-79
2024/02/07 08:09:18;;;;;;;1999.90;999.90;;;;;;;;;;5042443;28;20072;-79
2024/02/07 08:11:45;;;;;;;1999.90;999.90;;;;;;;;;;5041864;28;20049;-80
2024/02/07 08:14:11;;;;;;;1999.90;999.90;;;;;;;;;;5042511;28;20049;-79
2024/02/07 08:16:37;;;;;;;1999.90;999.90;;;;;;;;;;5050390;28;20056;-79
2024/02/07 08:19:04;;;;;;;1999.90;999.90;;;;;;;;;;5048290;28;20509;-79
2024/02/07 08:21:31;;;;;;;1999.90;999.90;;;;;;;;;;5041716;28;20050;-78
2024/02/07 08:23:57;;;;;;;1999.90;999.90;;;;;;;;;;5042323;28;20049;-78
2024/02/07 08:26:25;;;;;;;1999.90;999.90;;;;;;;;;;5038877;28;20053;-79
2024/02/07 08:28:52;;;;;;;1999.90;999.90;;;;;;;;;;5038248;28;20045;-81
2024/02/07 08:31:18;;;;;;;1999.90;999.90;;;;;;;;;;5040186;28;20502;-80
2024/02/07 08:33:45;;;;;;;1999.90;999.90;;;;;;;;;;5041880;28;20126;-80
2024/02/07 08:36:11;;;;;;;1999.90;999.90;;;;;;;;;;5041908;28;20053;-79
2024/02/07 08:38:38;;;;;;;1999.90;999.90;;;;;;;;;;5038790;28;20604;-79
2024/02/07 08:41:04;;;;;;;1999.90;999.90;;;;;;;;;;5038355;28;20049;-81
2024/02/07 08:43:32;;;;;;;1999.90;999.90;;;;;;;;;;5042977;28;20048;-79
2024/02/07 08:45:59;;;;;;;1999.90;999.90;;;;;;;;;;5045449;28;21041;-79
2024/02/07 08:48:25;;;;;;;1999.90;999.90;;;;;;;;;;5046470;28;20040;-81
2024/02/07 08:50:52;;;;;;;1999.90;999.90;;;;;;;;;;5053014;28;20037;-80
2024/02/07 08:53:18;;;;;;;1999.90;999.90;;;;;;;;;;5052286;28;20067;-81
2024/02/07 08:55:45;;;;;;;1999.90;999.90;;;;;;;;;;5040570;28;20052;-79
2024/02/07 08:58:11;;;;;;;1999.90;999.90;;;;;;;;;;5038517;28;20055;-79
2024/02/07 09:00:40;;;;;;;1999.90;999.90;;;;;;;;;;5037705;28;20041;-81
2024/02/07 09:03:07;;;;;;;1999.90;999.90;;;;;;;;;;5047169;28;20056;-80
2024/02/07 09:05:33;;;;;;;1999.90;999.90;;;;;;;;;;5050491;28;20045;-81
2024/02/07 09:08:00;;;;;;;1999.90;999.90;;;;;;;;;;5050158;28;20045;-79
2024/02/07 09:10:26;;;;;;;1999.90;999.90;;;;;;;;;;5048634;28;20051;-81
2024/02/07 09:12:53;;;;;;;1999.90;999.90;;;;;;;;;;5043627;28;20045;-80
2024/02/07 09:15:19;;;;;;;1999.90;999.90;;;;;;;;;;5040904;28;20073;-82
2024/02/07 09:17:47;;;;;;;1999.90;999.90;;;;;;;;;;5042295;28;20059;-82
2024/02/07 09:20:13;;;;;;;1999.90;999.90;;;;;;;;;;5047460;28;20069;-80
2024/02/07 09:22:40;;;;;;;1999.90;999.90;;;;;;;;;;5041275;28;20049;-81
2024/02/07 09:25:07;;;;;;;1999.90;999.90;;;;;;;;;;5040629;28;20050;-82
2024/02/07 09:27:34;;;;;;;1999.90;999.90;;;;;;;;;;5045370;28;20048;-81
2024/02/07 09:30:00;;;;;;;1999.90;999.90;;;;;;;;;;5036037;28;20053;-81
2024/02/07 09:32:27;;;;;;;1999.90;999.90;;;;;;;;;;5039605;28;20076;-81
2024/02/07 09:34:54;;;;;;;1999.90;999.90;;;;;;;;;;5046719;28;20048;-80
2024/02/07 09:37:22;;;;;;;1999.90;999.90;;;;;;;;;;5045780;28;20573;-81
2024/02/07 09:39:48;;;;;;;1999.90;999.90;;;;;;;;;;5046449;28;20099;-83
2024/02/07 09:42:19;;;;;;;1999.90;999.90;;;;;;;;;;5043738;28;20056;-80
2024/02/07 09:44:51;;;;;;;1999.90;999.90;;;;;;;;;;5042286;28;20779;-81
2024/02/07 09:47:19;;;;;;;1999.90;999.90;;;;;;;;;;5045936;28;20067;-79
2024/02/07 09:49:47;;;;;;;1999.90;999.90;;;;;;;;;;5044872;28;20047;-80
2024/02/07 09:52:16;;;;;;;1999.90;999.90;;;;;;;;;;5048541;28;20051;-81
2024/02/07 09:54:42;;;;;;;1999.90;999.90;;;;;;;;;;5043357;28;20044;-80
2024/02/07 09:57:09;;;;;;;1999.90;999.90;;;;;;;;;;5041758;28;20103;-82
2024/02/07 09:59:36;;;;;;;1999.90;999.90;;;;;;;;;;5047035;28;20053;-80
2024/02/07 10:02:05;;;;;;;1999.90;999.90;;;;;;;;;;5035165;28;20410;-83
2024/02/07 10:04:36;;;;;;;1999.90;999.90;;;;;;;;;;5048100;28;20045;-81
2024/02/07 10:07:02;;;;;;;1999.90;999.90;;;;;;;;;;5050977;28;20877;-79
2024/02/07 10:09:31;;;;;;;1999.90;999.90;;;;;;;;;;5047495;28;20747;-81
2024/02/07 10:11:57;;;;;;;1999.90;999.90;;;;;;;;;;5043386;28;20490;-79
2024/02/07 10:14:24;;;;;;;1999.90;999.90;;;;;;;;;;5043765;28;20056;-80
2024/02/07 10:16:50;;;;;;;1999.90;999.90;;;;;;;;;;5039385;28;20756;-80
2024/02/07 10:19:17;;;;;;;1999.90;999.90;;;;;;;;;;5045589;28;20048;-80
2024/02/07 10:21:43;;;;;;;1999.90;999.90;;;;;;;;;;5051501;28;20046;-80
2024/02/07 10:24:10;;;;;;;1999.90;999.90;;;;;;;;;;5051729;28;20057;-83
2024/02/07 10:26:37;;;;;;;1999.90;999.90;;;;;;;;;;5047945;28;20094;-80
2024/02/07 10:29:06;;;;;;;1999.90;999.90;;;;;;;;;;5044817;28;20044;-81
2024/02/07 10:31:32;;;;;;;1999.90;999.90;;;;;;;;;;5037474;28;20054;-82
2024/02/07 10:33:59;;;;;;;1999.90;999.90;;;;;;;;;;5041616;28;20052;-81
2024/02/07 10:36:25;;;;;;;1999.90;999.90;;;;;;;;;;5044716;28;20053;-82
2024/02/07 10:38:53;;;;;;;1999.90;999.90;;;;;;;;;;5041567;28;20047;-79
2024/02/07 10:41:20;;;;;;;1999.90;999.90;;;;;;;;;;5040812;28;20049;-81
2024/02/07 10:43:47;;;;;;;1999.90;999.90;;;;;;;;;;5041589;28;20136;-80
2024/02/07 10:46:15;;;;;;;1999.90;999.90;;;;;;;;;;5046130;28;20075;-80
2024/02/07 10:48:42;;;;;;;1999.90;999.90;;;;;;;;;;5044748;28;20049;-81
2024/02/07 10:51:09;;;;;;;1999.90;999.90;;;;;;;;;;5049830;28;20047;-80
2024/02/07 10:53:37;;;;;;;1999.90;999.90;;;;;;;;;;5047035;28;20351;-79
2024/02/07 10:56:04;;;;;;;1999.90;999.90;;;;;;;;;;5052140;28;20049;-80
2024/02/07 10:58:32;;;;;;;1999.90;999.90;;;;;;;;;;5047339;28;20049;-80
2024/02/07 11:01:00;;;;;;;1999.90;999.90;;;;;;;;;;5042972;28;20041;-81
2024/02/07 11:03:29;;;;;;;1999.90;999.90;;;;;;;;;;5042905;28;20567;-82
2024/02/07 11:05:57;;;;;;;1999.90;999.90;;;;;;;;;;5049228;28;20056;-81
2024/02/07 11:08:25;;;;;;;1999.90;999.90;;;;;;;;;;5051821;28;20045;-80
2024/02/07 11:10:52;;;;;;;1999.90;999.90;;;;;;;;;;5052438;28;20514;-80
2024/02/07 11:13:20;;;;;;;1999.90;999.90;;;;;;;;;;5050756;28;20049;-80
2024/02/07 11:15:47;;;;;;;1999.90;999.90;;;;;;;;;;5048302;28;20436;-81
2024/02/07 11:18:15;;;;;;;1999.90;999.90;;;;;;;;;;5044853;28;20051;-79
2024/02/07 11:20:44;;;;;;;1999.90;999.90;;;;;;;;;;5045367;28;20053;-81
2024/02/07 11:23:13;;;;;;;1999.90;999.90;;;;;;;;;;5042105;28;20132;-81
2024/02/07 11:25:41;;;;;;;1999.90;999.90;;;;;;;;;;5041876;28;20057;-81
2024/02/07 11:28:07;;;;;;;1999.90;999.90;;;;;;;;;;5046106;28;20049;-82
2024/02/07 11:30:34;;;;;;;1999.90;999.90;;;;;;;;;;5047046;28;20052;-81
2024/02/07 11:33:01;;;;;;;1999.90;999.90;;;;;;;;;;5043131;28;20063;-80
2024/02/07 11:35:32;;;;;;;1999.90;999.90;;;;;;;;;;5040532;28;20049;-81
2024/02/07 11:38:02;;;;;;;1999.90;999.90;;;;;;;;;;5044353;28;20052;-81
2024/02/07 11:40:37;;;;;;;1999.90;999.90;;;;;;;;;;5043538;28;20045;-80
2024/02/07 11:43:04;;;;;;;1999.90;999.90;;;;;;;;;;5048906;28;20055;-80
2024/02/07 11:45:31;;;;;;;1999.90;999.90;;;;;;;;;;5043614;28;20120;-81
2024/02/07 11:47:57;;;;;;;1999.90;999.90;;;;;;;;;;5042201;28;20053;-81
2024/02/07 11:50:24;;;;;;;1999.90;999.90;;;;;;;;;;5040718;28;20537;-82
2024/02/07 11:52:55;;;;;;;1999.90;999.90;;;;;;;;;;5045063;28;20092;-80
2024/02/07 11:55:21;;;;;;;1999.90;999.90;;;;;;;;;;5047784;28;20045;-80
2024/02/07 11:57:52;;;;;;;1999.90;999.90;;;;;;;;;;5049754;28;20052;-80
2024/02/07 12:00:21;;;;;;;1999.90;999.90;;;;;;;;;;5043340;28;20115;-80
2024/02/07 12:02:48;;;;;;;1999.90;999.90;;;;;;;;;;5046565;28;20041;-80
2024/02/07 12:05:17;;;;;;;1999.90;999.90;;;;;;;;;;5041224;28;20049;-81
2024/02/07 12:07:43;;;;;;;1999.90;999.90;;;;;;;;;;5041895;28;20057;-80
2024/02/07 12:10:12;;;;;;;1999.90;999.90;;;;;;;;;;5045269;28;20055;-81
2024/02/07 12:12:38;;;;;;;1999.90;999.90;;;;;;;;;;5040630;28;20782;-81
2024/02/07 12:15:06;;;;;;;1999.90;999.90;;;;;;;;;;5043576;28;20045;-81
2024/02/07 12:17:34;;;;;;;1999.90;999.90;;;;;;;;;;5045173;28;20053;-80
2024/02/07 12:20:02;;;;;;;1999.90;999.90;;;;;;;;;;5045407;28;20049;-80
2024/02/07 12:22:30;;;;;;;1999.90;999.90;;;;;;;;;;5048701;28;20052;-81
2024/02/07 12:25:00;;;;;;;1999.90;999.90;;;;;;;;;;5048746;28;20060;-80
2024/02/07 12:27:28;;;;;;;1999.90;999.90;;;;;;;;;;5051246;28;20056;-80
2024/02/07 12:29:56;;;;;;;1999.90;999.90;;;;;;;;;;5056499;28;20067;-82
2024/02/07 12:32:23;;;;;;;1999.90;999.90;;;;;;;;;;5045929;28;20056;-81
2024/02/07 12:34:50;;;;;;;1999.90;999.90;;;;;;;;;;5042508;28;20049;-80
2024/02/07 12:37:18;;;;;;;1999.90;999.90;;;;;;;;;;5039503;28;20056;-81
2024/02/07 12:39:48;;;;;;;1999.90;999.90;;;;;;;;;;5038188;28;20056;-80
2024/02/07 12:42:15;;;;;;;1999.90;999.90;;;;;;;;;;5044886;28;20128;-80
2024/02/07 12:44:43;;;;;;;1999.90;999.90;;;;;;;;;;5045424;28;20493;-80
2024/02/07 12:47:09;;;;;;;1999.90;999.90;;;;;;;;;;5043713;28;20055;-80
2024/02/07 12:49:36;;;;;;;1999.90;999.90;;;;;;;;;;5041052;28;20068;-81
2024/02/07 12:52:03;;;;;;;1999.90;999.90;;;;;;;;;;5046803;28;20057;-82
2024/02/07 12:54:30;;;;;;;1999.90;999.90;;;;;;;;;;5038131;28;20050;-81
2024/02/07 12:56:57;;;;;;;1999.90;999.90;;;;;;;;;;5040346;28;20517;-81
2024/02/07 12:59:30;;;;;;;1999.90;999.90;;;;;;;;;;5040843;28;20140;-80
2024/02/07 13:01:58;;;;;;;1999.90;999.90;;;;;;;;;;5046304;28;20128;-80
2024/02/07 13:04:25;;;;;;;1999.90;999.90;;;;;;;;;;5046065;28;20045;-81
2024/02/07 13:06:51;;;;;;;1999.90;999.90;;;;;;;;;;5035876;28;20049;-82
2024/02/07 13:09:17;;;;;;;1999.90;999.90;;;;;;;;;;5044112;28;20050;-82
2024/02/07 13:11:44;;;;;;;1999.90;999.90;;;;;;;;;;5048113;28;20055;-78
2024/02/07 13:14:10;;;;;;;1999.90;999.90;;;;;;;;;;5051390;28;20486;-80
2024/02/07 13:16:37;;;;;;;1999.90;999.90;;;;;;;;;;5051585;28;20068;-82
2024/02/07 13:19:05;;;;;;;1999.90;999.90;;;;;;;;;;5049798;28;20053;-80
2024/02/07 13:21:32;;;;;;;1999.90;999.90;;;;;;;;;;5044495;28;20052;-81
2024/02/07 13:23:59;;;;;;;1999.90;999.90;;;;;;;;;;5042465;28;20056;-82
2024/02/07 13:26:25;;;;;;;1999.90;999.90;;;;;;;;;;5038368;28;20049;-81
2024/02/07 13:28:52;;;;;;;1999.90;999.90;;;;;;;;;;5041060;28;20553;-82
2024/02/07 13:31:19;;;;;;;1999.90;999.90;;;;;;;;;;5049099;28;20411;-80
2024/02/07 13:33:45;;;;;;;1999.90;999.90;;;;;;;;;;5043753;28;20049;-81
2024/02/07 13:36:13;;;;;;;1999.90;999.90;;;;;;;;;;5041755;28;20057;-82
2024/02/07 13:38:39;;;;;;;1999.90;999.90;;;;;;;;;;5043017;28;20049;-81
2024/02/07 13:41:06;;;;;;;1999.90;999.90;;;;;;;;;;5040712;28;20049;-80
2024/02/07 13:43:32;;;;;;;1999.90;999.90;;;;;;;;;;5045934;28;20103;-82
2024/02/07 13:45:59;;;;;;;1999.90;999.90;;;;;;;;;;5047048;28;20045;-80
2024/02/07 13:48:28;;;;;;;1999.90;999.90;;;;;;;;;;5036399;28;20041;-80
2024/02/07 13:50:54;;;;;;;1999.90;999.90;;;;;;;;;;5037382;28;20076;-81
2024/02/07 13:53:22;;;;;;;1999.90;999.90;;;;;;;;;;5041886;28;20397;-81
2024/02/07 13:55:50;;;;;;;1999.90;999.90;;;;;;;;;;5039242;28;20069;-81
2024/02/07 13:58:17;;;;;;;1999.90;999.90;;;;;;;;;;5038700;28;20046;-81
2024/02/07 14:00:43;;;;;;;1999.90;999.90;;;;;;;;;;5044825;28;20052;-80
2024/02/07 14:03:10;;;;;;;1999.90;999.90;;;;;;;;;;5041145;28;20052;-81
2024/02/07 14:05:36;;;;;;;1999.90;999.90;;;;;;;;;;5040669;28;20053;-81
2024/02/07 14:08:03;;;;;;;1999.90;999.90;;;;;;;;;;5045437;28;20055;-82
2024/02/07 14:10:31;;;;;;;1999.90;999.90;;;;;;;;;;5041666;28;20057;-81
2024/02/07 14:12:57;;;;;;;1999.90;999.90;;;;;;;;;;5037752;28;20071;-80
2024/02/07 14:15:24;;;;;;;1999.90;999.90;;;;;;;;;;5041067;28;20053;-81
2024/02/07 14:17:52;;;;;;;1999.90;999.90;;;;;;;;;;5044656;28;20045;-83
2024/02/07 14:20:19;;;;;;;1999.90;999.90;;;;;;;;;;5043679;28;20044;-81
2024/02/07 14:22:45;;;;;;;1999.90;999.90;;;;;;;;;;5041263;28;20052;-81
2024/02/07 14:25:13;;;;;;;1999.90;999.90;;;;;;;;;;5041953;28;20057;-80
2024/02/07 14:27:41;;;;;;;1999.90;999.90;;;;;;;;;;5043313;28;20062;-80
2024/02/07 14:30:08;;;;;;;1999.90;999.90;;;;;;;;;;5041553;28;20053;-79
2024/02/07 14:32:35;;;;;;;1999.90;999.90;;;;;;;;;;5048926;28;20093;-81
2024/02/07 14:35:01;;;;;;;1999.90;999.90;;;;;;;;;;5037086;28;20052;-82
2024/02/07 14:37:31;;;;;;;1999.90;999.90;;;;;;;;;;5036843;28;20050;-80
2024/02/07 14:39:57;;;;;;;1999.90;999.90;;;;;;;;;;5045145;28;20056;-81
2024/02/07 14:42:24;;;;;;;1999.90;999.90;;;;;;;;;;5044641;28;20060;-82
2024/02/07 14:44:51;;;;;;;1999.90;999.90;;;;;;;;;;5042384;28;20041;-81
2024/02/07 14:47:19;;;;;;;1999.90;999.90;;;;;;;;;;5045083;28;20048;-80
2024/02/07 14:49:45;;;;;;;1999.90;999.90;;;;;;;;;;5050732;28;20473;-81
2024/02/07 14:52:12;;;;;;;1999.90;999.90;;;;;;;;;;5045465;28;20048;-81